METAR Data
IDs: Format: Raw Decoded Include TAF

Data at: 2219 UTC 02 Aug 2021

ETSB 022120Z AUTO 08003KT 9000 // ////// 14/12 Q1016 ///